Time;durP1;ratioP1;P1;durP2;ratioP2;P2;SDS_P1;SDS_P2;PMS_P1;PMS_P2;Temp;Humidity;BMP_temperature;BMP_pressure;BME280_temperature;BME280_humidity;BME280_pressure;Samples;Min_cycle;Max_cycle;Signal;HPM_P1;HPM_P2
2023/05/29 00:00:37;;;;;;;12.63;5.57;;;;;;;13.46;77.17;102198.78;4957337;28;20102;-63
2023/05/29 00:03:04;;;;;;;9.50;5.20;;;;;;;13.43;76.67;102209.16;4957759;28;20034;-63
2023/05/29 00:05:30;;;;;;;9.27;4.63;;;;;;;13.41;77.40;102216.06;4957312;28;20063;-63
2023/05/29 00:07:55;;;;;;;10.32;5.35;;;;;;;13.33;77.84;102217.53;4958614;28;20037;-63
2023/05/29 00:10:21;;;;;;;10.30;4.25;;;;;;;13.28;76.84;102214.75;4956185;28;20046;-63
2023/05/29 00:12:46;;;;;;;11.35;4.70;;;;;;;13.12;77.47;102215.94;4956666;28;21204;-63
2023/05/29 00:15:12;;;;;;;9.68;4.50;;;;;;;13.06;77.47;102218.31;4957916;28;20037;-63
2023/05/29 00:17:37;;;;;;;11.35;4.18;;;;;;;13.10;75.76;102217.59;4957678;28;20045;-63
2023/05/29 00:20:08;;;;;;;8.98;3.80;;;;;;;12.86;75.76;102221.13;4956503;28;20049;-63
2023/05/29 00:22:36;;;;;;;11.40;4.18;;;;;;;12.70;77.59;102219.69;4957825;28;20491;-63
2023/05/29 00:25:03;;;;;;;11.50;3.95;;;;;;;12.65;77.26;102221.22;4955281;28;20038;-63
2023/05/29 00:27:29;;;;;;;11.38;4.00;;;;;;;12.66;77.67;102217.78;4958813;28;20760;-63
2023/05/29 00:29:54;;;;;;;11.07;4.10;;;;;;;12.71;76.59;102228.41;4958572;28;20082;-63
2023/05/29 00:32:19;;;;;;;12.82;4.60;;;;;;;12.77;77.66;102238.19;4956431;28;20031;-63
2023/05/29 00:34:45;;;;;;;13.45;3.90;;;;;;;12.72;75.62;102230.19;4955142;28;20026;-63
2023/05/29 00:37:10;;;;;;;9.90;3.97;;;;;;;12.65;77.34;102229.06;4956855;28;20046;-63
2023/05/29 00:39:36;;;;;;;12.15;3.97;;;;;;;12.68;76.93;102234.41;4958006;28;20027;-63
2023/05/29 00:42:01;;;;;;;9.88;3.47;;;;;;;12.65;76.70;102236.91;4951022;28;20058;-63
2023/05/29 00:44:26;;;;;;;9.40;3.70;;;;;;;12.61;76.12;102239.34;4956452;28;20023;-63
2023/05/29 00:46:53;;;;;;;10.73;3.88;;;;;;;12.58;74.74;102234.91;4958250;28;20030;-63
2023/05/29 00:49:19;;;;;;;12.05;3.30;;;;;;;12.53;75.88;102241.69;4955456;28;20525;-63
2023/05/29 00:51:45;;;;;;;11.18;3.20;;;;;;;12.44;74.85;102236.09;4958197;28;20070;-64
2023/05/29 00:54:14;;;;;;;7.05;2.78;;;;;;;12.40;75.47;102253.41;4954687;28;20035;-63
2023/05/29 00:56:43;;;;;;;8.52;2.97;;;;;;;12.27;74.81;102256.38;4957573;28;20030;-63
2023/05/29 00:59:09;;;;;;;10.18;3.10;;;;;;;12.23;73.97;102251.84;4956060;28;20043;-63
2023/05/29 01:01:35;;;;;;;8.15;2.90;;;;;;;12.27;75.25;102244.19;4957087;28;20116;-63
2023/05/29 01:04:03;;;;;;;9.90;3.00;;;;;;;12.26;74.65;102255.47;4955809;28;20042;-63
2023/05/29 01:06:29;;;;;;;11.43;3.00;;;;;;;12.24;74.73;102262.38;4957394;28;20053;-63
2023/05/29 01:08:55;;;;;;;12.73;3.35;;;;;;;12.07;74.95;102256.44;4956475;28;20861;-63
2023/05/29 01:11:42;;;;;;;12.90;3.50;;;;;;;12.06;74.21;102256.41;4956382;28;20085;-63
2023/05/29 01:14:10;;;;;;;11.02;3.40;;;;;;;12.05;74.17;102265.97;4953454;28;20430;-63
2023/05/29 01:16:41;;;;;;;15.68;3.90;;;;;;;12.03;75.17;102264.13;4955030;28;20118;-63
2023/05/29 01:19:42;;;;;;;11.30;2.80;;;;;;;11.96;74.25;102271.72;4954525;28;20585;-63
2023/05/29 01:22:40;;;;;;;12.43;2.97;;;;;;;11.97;74.23;102270.84;4956528;28;20093;-63
2023/05/29 01:25:18;;;;;;;9.30;2.90;;;;;;;11.86;75.45;102272.13;4956386;28;20118;-63
2023/05/29 01:27:47;;;;;;;10.73;2.78;;;;;;;11.70;75.01;102259.25;4957690;28;20053;-63
2023/05/29 01:30:14;;;;;;;13.00;3.40;;;;;;;11.62;74.76;102266.75;4956611;28;20490;-63
2023/05/29 01:32:41;;;;;;;11.00;2.97;;;;;;;11.50;76.43;102272.38;4955053;28;20031;-63
2023/05/29 01:35:07;;;;;;;10.52;2.88;;;;;;;11.51;75.91;102268.03;4956187;28;20037;-63
2023/05/29 01:37:32;;;;;;;8.73;2.95;;;;;;;11.55;76.39;102265.59;4954580;28;20034;-63
2023/05/29 01:39:58;;;;;;;12.98;3.00;;;;;;;11.53;75.75;102272.50;4957150;28;20416;-63
2023/05/29 01:42:24;;;;;;;7.60;3.08;;;;;;;11.45;75.54;102266.03;4954770;28;20034;-63
2023/05/29 01:44:49;;;;;;;10.07;2.67;;;;;;;11.42;76.30;102272.00;4955260;28;20030;-63
2023/05/29 01:47:15;;;;;;;11.32;2.70;;;;;;;11.40;76.18;102272.78;4954308;28;20050;-63
2023/05/29 01:49:42;;;;;;;11.05;3.00;;;;;;;11.42;76.90;102269.41;4954946;28;20038;-63
2023/05/29 01:52:07;;;;;;;9.70;3.13;;;;;;;11.44;74.98;102266.84;4956013;28;20173;-63
2023/05/29 01:54:32;;;;;;;10.18;3.15;;;;;;;11.44;76.49;102269.47;4956214;28;20669;-63
2023/05/29 01:57:00;;;;;;;8.43;2.90;;;;;;;11.40;76.10;102267.56;4954524;28;20118;-63
2023/05/29 01:59:26;;;;;;;11.80;3.25;;;;;;;11.33;75.24;102263.78;4955344;28;20031;-63
2023/05/29 02:01:51;;;;;;;10.18;2.90;;;;;;;11.38;76.25;102257.03;4953468;28;20035;-63
2023/05/29 02:04:17;;;;;;;9.85;3.00;;;;;;;11.36;76.73;102258.72;4956246;28;20031;-63
2023/05/29 02:06:42;;;;;;;8.98;3.25;;;;;;;11.23;77.87;102262.50;4950367;28;20438;-63
2023/05/29 02:09:07;;;;;;;11.13;3.42;;;;;;;11.22;77.39;102262.44;4954516;28;20050;-62
2023/05/29 02:11:33;;;;;;;10.02;2.92;;;;;;;11.24;77.43;102264.28;4955646;28;20372;-63
2023/05/29 02:13:58;;;;;;;10.10;2.78;;;;;;;11.22;75.33;102267.66;4954418;28;20654;-63
2023/05/29 02:16:23;;;;;;;8.93;2.75;;;;;;;11.31;76.71;102266.34;4954956;28;20507;-63
2023/05/29 02:18:49;;;;;;;9.77;2.65;;;;;;;11.28;75.51;102261.00;4953554;28;20039;-63
2023/05/29 02:21:14;;;;;;;12.63;2.75;;;;;;;11.18;76.65;102266.63;4954896;28;20150;-63
2023/05/29 02:23:40;;;;;;;10.10;2.67;;;;;;;11.13;76.81;102265.53;4953260;28;20050;-63
2023/05/29 02:26:05;;;;;;;10.02;2.70;;;;;;;11.09;77.37;102271.44;4954675;28;20402;-63
2023/05/29 02:28:31;;;;;;;13.93;3.33;;;;;;;11.10;74.41;102268.00;4956337;28;20043;-63
2023/05/29 02:30:56;;;;;;;11.57;2.67;;;;;;;11.08;77.00;102272.25;4956001;28;20516;-63
2023/05/29 02:33:21;;;;;;;9.73;2.58;;;;;;;11.09;77.10;102272.34;4954985;28;20055;-63
2023/05/29 02:35:47;;;;;;;10.07;2.83;;;;;;;11.11;77.06;102268.06;4955424;28;20027;-63
2023/05/29 02:38:12;;;;;;;8.73;2.60;;;;;;;11.11;76.93;102285.44;4955796;28;20023;-62
2023/05/29 02:40:38;;;;;;;11.95;2.42;;;;;;;11.12;77.25;102282.91;4954693;28;20035;-62
2023/05/29 02:43:04;;;;;;;11.02;2.75;;;;;;;11.11;76.89;102283.72;4955371;28;20077;-63
2023/05/29 02:45:30;;;;;;;10.50;2.47;;;;;;;11.06;77.07;102290.44;4952720;28;20038;-63
2023/05/29 02:47:55;;;;;;;13.10;3.10;;;;;;;11.00;77.33;102290.16;4954285;28;20035;-58
2023/05/29 02:50:20;;;;;;;9.73;2.88;;;;;;;11.00;77.37;102286.69;4954725;28;20561;-58
2023/05/29 02:52:45;;;;;;;9.40;2.50;;;;;;;10.96;76.13;102294.38;4953968;28;20034;-58
2023/05/29 02:55:11;;;;;;;7.50;2.65;;;;;;;10.93;76.57;102298.53;4954296;28;20027;-58
2023/05/29 02:57:36;;;;;;;10.27;2.83;;;;;;;10.93;77.67;102299.44;4955362;28;20530;-57
2023/05/29 03:00:05;;;;;;;11.18;3.03;;;;;;;10.88;77.42;102295.72;4954745;28;20034;-58
2023/05/29 03:02:31;;;;;;;9.93;2.67;;;;;;;10.81;77.62;102298.88;4954289;28;20075;-58
2023/05/29 03:04:56;;;;;;;15.68;2.90;;;;;;;10.75;78.23;102296.88;4954679;28;20077;-58
2023/05/29 03:07:22;;;;;;;10.05;2.70;;;;;;;10.63;78.19;102293.72;4955397;28;20031;-57
2023/05/29 03:09:47;;;;;;;11.18;2.75;;;;;;;10.50;78.66;102299.16;4953037;28;20027;-58
2023/05/29 03:12:12;;;;;;;8.23;2.67;;;;;;;10.48;78.78;102301.69;4953846;28;20062;-58
2023/05/29 03:14:37;;;;;;;7.00;2.50;;;;;;;10.46;77.23;102298.13;4953400;28;20051;-58
2023/05/29 03:17:07;;;;;;;8.85;2.90;;;;;;;10.47;78.72;102301.63;4953688;28;20085;-59
2023/05/29 03:19:32;;;;;;;;;;;;;;;10.46;76.76;102295.53;4953638;28;20130;-58
2023/05/29 03:21:57;;;;;;;10.23;2.60;;;;;;;10.39;76.31;102293.44;4954834;28;20013;-58
2023/05/29 03:24:27;;;;;;;8.70;2.63;;;;;;;10.41;79.02;102299.59;4951676;28;20033;-58
2023/05/29 03:26:52;;;;;;;;;;;;;;;10.43;76.67;102295.38;4955140;28;20023;-58
2023/05/29 03:29:17;;;;;;;10.32;2.40;;;;;;;10.34;79.35;102301.03;4952845;28;19952;-58
2023/05/29 03:31:43;;;;;;;13.93;2.80;;;;;;;10.30;79.75;102299.06;4953973;28;20065;-58
2023/05/29 03:34:08;;;;;;;10.35;2.55;;;;;;;10.28;79.08;102305.91;4951996;28;20130;-58
2023/05/29 03:36:36;;;;;;;10.02;2.85;;;;;;;10.26;80.17;102302.34;4954783;28;20118;-58
2023/05/29 03:39:02;;;;;;;12.15;2.80;;;;;;;10.22;80.51;102301.28;4953225;28;20197;-57
2023/05/29 03:41:28;;;;;;;10.70;2.88;;;;;;;10.18;80.66;102306.28;4955072;28;20019;-58
2023/05/29 03:43:53;;;;;;;12.07;2.70;;;;;;;10.11;81.28;102305.09;4953296;28;20034;-58
2023/05/29 03:46:18;;;;;;;8.45;2.50;;;;;;;10.14;81.39;102304.34;4953516;28;20402;-58
2023/05/29 03:48:43;;;;;;;9.25;2.70;;;;;;;10.12;80.15;102314.69;4954836;28;20022;-57
2023/05/29 03:51:10;;;;;;;10.75;2.60;;;;;;;10.07;81.38;102304.03;4954398;28;20031;-58
2023/05/29 03:53:35;;;;;;;13.50;3.25;;;;;;;10.03;81.54;102314.25;4951195;28;20035;-57
2023/05/29 03:56:00;;;;;;;10.93;2.83;;;;;;;10.06;81.90;102309.19;4953266;28;20027;-58
2023/05/29 03:58:26;;;;;;;10.38;2.75;;;;;;;10.07;81.97;102321.38;4953439;28;20162;-58
2023/05/29 04:00:51;;;;;;;7.78;2.80;;;;;;;10.12;81.89;102317.28;4953600;28;20078;-58
2023/05/29 04:03:16;;;;;;;7.80;3.17;;;;;;;10.15;80.70;102326.97;4953063;28;20328;-57
2023/05/29 04:05:42;;;;;;;12.20;3.08;;;;;;;10.16;81.69;102319.22;4955655;28;20035;-58
2023/05/29 04:08:08;;;;;;;10.88;2.90;;;;;;;10.18;81.93;102319.28;4952738;28;20031;-63
2023/05/29 04:10:34;;;;;;;10.93;2.70;;;;;;;10.09;80.34;102331.06;4952908;28;20110;-63
2023/05/29 04:13:00;;;;;;;12.60;2.90;;;;;;;10.10;80.81;102329.34;4954224;28;20137;-63
2023/05/29 04:15:27;;;;;;;12.32;2.83;;;;;;;10.09;80.12;102330.16;4953419;28;20445;-63
2023/05/29 04:17:52;;;;;;;15.32;3.42;;;;;;;10.11;81.53;102333.75;4954820;28;20035;-63
2023/05/29 04:20:17;;;;;;;10.02;2.60;;;;;;;10.04;81.85;102336.88;4953563;28;20053;-63
2023/05/29 04:22:43;;;;;;;12.95;3.08;;;;;;;10.02;82.32;102328.06;4953002;28;20034;-63
2023/05/29 04:25:08;;;;;;;15.52;3.42;;;;;;;9.99;82.90;102336.63;4955103;28;20035;-63
2023/05/29 04:27:37;;;;;;;9.80;2.88;;;;;;;9.96;82.21;102332.97;4957992;28;20030;-63
2023/05/29 04:30:06;;;;;;;11.90;3.23;;;;;;;9.99;82.82;102339.22;4958718;28;20027;-63
2023/05/29 04:32:32;;;;;;;11.40;3.00;;;;;;;9.96;83.29;102338.19;4956632;28;20049;-62
2023/05/29 04:35:01;;;;;;;10.68;3.03;;;;;;;9.93;82.23;102333.72;4956819;28;20081;-63
2023/05/29 04:37:28;;;;;;;12.35;2.88;;;;;;;9.94;81.41;102339.84;4957056;28;20046;-63
2023/05/29 04:39:55;;;;;;;12.15;3.00;;;;;;;9.92;83.64;102340.63;4954575;28;20141;-63
2023/05/29 04:42:20;;;;;;;12.88;3.30;;;;;;;9.94;83.13;102347.66;4956154;28;20037;-63
2023/05/29 04:44:46;;;;;;;9.75;2.90;;;;;;;9.99;82.95;102341.81;4957661;28;20403;-63
2023/05/29 04:47:12;;;;;;;9.20;2.72;;;;;;;10.02;83.02;102349.81;4954851;28;20049;-63
2023/05/29 04:49:40;;;;;;;12.25;3.03;;;;;;;10.02;82.53;102349.81;4955126;28;20041;-63
2023/05/29 04:52:05;;;;;;;8.38;3.30;;;;;;;10.04;83.30;102348.16;4955701;28;20037;-63
2023/05/29 04:54:30;;;;;;;10.10;2.97;;;;;;;10.10;83.21;102337.16;4957101;28;20034;-63
2023/05/29 04:56:56;;;;;;;12.02;2.75;;;;;;;10.08;82.94;102350.13;4956206;28;20037;-63
2023/05/29 04:59:21;;;;;;;10.50;2.60;;;;;;;10.13;83.16;102352.94;4955768;28;20090;-63
2023/05/29 05:01:47;;;;;;;9.35;2.70;;;;;;;10.14;83.30;102351.22;4956061;28;20110;-63
2023/05/29 05:04:12;;;;;;;11.57;2.65;;;;;;;10.13;83.26;102352.94;4957700;28;20031;-63
2023/05/29 05:06:39;;;;;;;10.52;2.97;;;;;;;10.17;83.01;102343.59;4957333;28;20503;-63
2023/05/29 05:09:04;;;;;;;10.27;2.78;;;;;;;10.19;82.71;102341.94;4957248;28;20416;-63
2023/05/29 05:11:30;;;;;;;11.00;2.90;;;;;;;10.17;83.25;102346.19;4954787;28;20500;-63
2023/05/29 05:13:55;;;;;;;8.27;2.33;;;;;;;10.22;81.81;102352.50;4954764;28;20062;-63
2023/05/29 05:16:20;;;;;;;11.88;2.83;;;;;;;10.20;82.35;102354.16;4956085;28;20026;-63
2023/05/29 05:18:46;;;;;;;11.95;2.58;;;;;;;10.24;83.59;102356.09;4955261;28;20069;-64
2023/05/29 05:21:11;;;;;;;7.72;2.70;;;;;;;10.32;83.50;102366.88;4954982;28;20053;-63
2023/05/29 05:23:37;;;;;;;9.95;2.78;;;;;;;10.33;82.83;102355.66;4955946;28;20023;-63
2023/05/29 05:26:02;;;;;;;11.73;3.00;;;;;;;10.35;82.77;102367.06;4954827;28;20113;-63
2023/05/29 05:28:28;;;;;;;10.63;2.58;;;;;;;10.39;80.66;102367.28;4956573;28;20023;-63
2023/05/29 05:30:53;;;;;;;8.82;2.42;;;;;;;10.45;81.83;102371.91;4954592;28;20100;-63
2023/05/29 05:33:18;;;;;;;12.85;2.90;;;;;;;10.47;81.74;102380.72;4954027;28;20499;-63
2023/05/29 05:35:44;;;;;;;12.73;3.10;;;;;;;10.50;80.05;102377.31;4954867;28;20027;-63
2023/05/29 05:38:09;;;;;;;11.95;3.00;;;;;;;10.56;82.08;102375.03;4957589;28;20490;-63
2023/05/29 05:40:35;;;;;;;11.80;2.90;;;;;;;10.59;80.51;102381.28;4957435;28;20490;-63
2023/05/29 05:43:00;;;;;;;8.52;2.75;;;;;;;10.66;81.45;102382.47;4954302;28;20495;-63
2023/05/29 05:45:25;;;;;;;10.02;2.40;;;;;;;10.69;79.97;102390.44;4957631;28;20090;-63
2023/05/29 05:47:51;;;;;;;11.68;2.83;;;;;;;10.73;80.95;102381.97;4955337;28;20035;-63
2023/05/29 05:50:16;;;;;;;14.18;3.13;;;;;;;10.77;80.98;102373.44;4956838;28;20154;-63
2023/05/29 05:52:41;;;;;;;11.10;2.97;;;;;;;10.85;80.98;102384.25;4954995;28;20523;-63
2023/05/29 05:55:07;;;;;;;16.00;2.90;;;;;;;10.89;79.70;102367.94;4954462;28;20493;-63
2023/05/29 05:57:33;;;;;;;12.43;3.22;;;;;;;10.93;79.80;102371.56;4956043;28;20491;-63
2023/05/29 06:00:00;;;;;;;11.35;2.67;;;;;;;10.93;80.44;102376.78;4954964;28;20039;-63
2023/05/29 06:02:28;;;;;;;11.25;3.20;;;;;;;10.96;80.81;102371.69;4954437;28;20442;-64
2023/05/29 06:04:54;;;;;;;11.65;2.90;;;;;;;10.96;80.72;102364.78;4956415;28;20134;-63
2023/05/29 06:07:19;;;;;;;10.27;2.50;;;;;;;11.07;79.95;102360.06;4956500;28;20038;-63
2023/05/29 06:09:44;;;;;;;11.93;3.05;;;;;;;11.19;80.45;102367.53;4953872;28;20034;-63
2023/05/29 06:12:10;;;;;;;10.35;2.67;;;;;;;11.27;78.27;102366.19;4956320;28;20027;-64
2023/05/29 06:14:35;;;;;;;13.50;2.92;;;;;;;11.30;78.59;102368.03;4955191;28;20050;-63
2023/05/29 06:17:01;;;;;;;11.82;2.42;;;;;;;11.40;78.88;102371.97;4954937;28;20035;-63
2023/05/29 06:19:27;;;;;;;10.80;2.60;;;;;;;11.49;77.99;102380.19;4954028;28;20043;-63
2023/05/29 06:21:52;;;;;;;9.48;2.55;;;;;;;11.61;77.15;102391.16;4954482;28;20038;-63
2023/05/29 06:24:17;;;;;;;13.00;3.00;;;;;;;11.65;76.77;102379.16;4954832;28;20718;-63
2023/05/29 06:26:43;;;;;;;13.85;3.05;;;;;;;11.77;76.98;102387.50;4954541;28;20126;-59
2023/05/29 06:29:08;;;;;;;9.02;2.55;;;;;;;11.83;76.20;102390.41;4956073;28;20035;-58
2023/05/29 06:31:33;;;;;;;10.38;3.17;;;;;;;11.92;76.58;102397.75;4956631;28;20062;-59
2023/05/29 06:33:59;;;;;;;11.23;3.33;;;;;;;12.00;75.72;102385.91;4954978;28;20037;-58
2023/05/29 06:36:24;;;;;;;8.98;2.67;;;;;;;12.05;75.82;102393.06;4953353;28;20019;-59
2023/05/29 06:38:50;;;;;;;12.50;2.58;;;;;;;12.13;74.58;102396.91;4954893;28;20035;-58
2023/05/29 06:41:16;;;;;;;11.23;2.53;;;;;;;12.13;74.66;102392.56;4954174;28;20031;-58
2023/05/29 06:43:41;;;;;;;9.55;2.10;;;;;;;12.21;74.85;102390.28;4955434;28;20035;-58
2023/05/29 06:46:07;;;;;;;10.75;3.13;;;;;;;12.33;74.59;102395.13;4951604;28;21092;-59
2023/05/29 06:48:34;;;;;;;10.00;2.80;;;;;;;12.39;74.67;102394.50;4952105;28;20066;-58
2023/05/29 06:50:59;;;;;;;11.07;2.80;;;;;;;12.46;74.93;102397.41;4954145;28;20074;-59
2023/05/29 06:53:25;;;;;;;8.32;2.38;;;;;;;12.54;74.95;102389.88;4953803;28;20121;-59
2023/05/29 06:55:52;;;;;;;10.30;2.47;;;;;;;12.67;75.29;102397.41;4953953;28;20019;-59
2023/05/29 06:58:17;;;;;;;6.95;2.40;;;;;;;12.76;73.99;102390.72;4954029;28;20031;-59
2023/05/29 07:00:42;;;;;;;11.05;2.80;;;;;;;12.82;72.48;102393.59;4953671;28;20573;-59
2023/05/29 07:03:08;;;;;;;12.73;2.58;;;;;;;12.88;73.08;102399.06;4954879;28;20039;-58
2023/05/29 07:05:33;;;;;;;13.00;2.30;;;;;;;12.94;73.25;102394.06;4954770;28;20034;-58
2023/05/29 07:07:58;;;;;;;9.82;2.70;;;;;;;13.00;73.41;102401.28;4954068;28;20073;-59
2023/05/29 07:10:24;;;;;;;9.93;2.10;;;;;;;13.11;72.02;102399.97;4960920;28;20027;-59
2023/05/29 07:12:49;;;;;;;9.85;2.40;;;;;;;13.19;73.33;102400.25;4953366;28;20094;-59
2023/05/29 07:15:15;;;;;;;10.85;2.60;;;;;;;13.28;72.45;102403.22;4953061;28;20027;-59
2023/05/29 07:17:40;;;;;;;11.32;2.55;;;;;;;13.35;71.95;102400.03;4955418;28;20035;-59
2023/05/29 07:20:07;;;;;;;9.48;2.60;;;;;;;13.45;71.07;102401.25;4952670;28;20038;-59
2023/05/29 07:22:34;;;;;;;10.40;2.30;;;;;;;13.52;70.04;102402.38;4955445;28;20490;-59
2023/05/29 07:25:00;;;;;;;8.80;2.28;;;;;;;13.55;69.34;102403.38;4953112;28;20486;-59
2023/05/29 07:27:25;;;;;;;8.63;2.10;;;;;;;13.58;69.95;102407.81;4950924;28;20089;-59
2023/05/29 07:29:51;;;;;;;9.93;2.60;;;;;;;13.67;68.17;102402.03;4955698;28;20046;-59
2023/05/29 07:32:16;;;;;;;8.40;2.50;;;;;;;13.74;69.19;102398.78;4952530;28;20019;-59
2023/05/29 07:34:41;;;;;;;11.23;2.42;;;;;;;13.88;69.25;102412.41;4952798;28;20069;-59
2023/05/29 07:37:07;;;;;;;9.10;2.72;;;;;;;13.99;69.19;102408.44;4953501;28;20022;-59
2023/05/29 07:39:34;;;;;;;9.85;2.15;;;;;;;14.00;67.07;102411.94;4955354;28;20039;-59
2023/05/29 07:42:02;;;;;;;8.93;2.53;;;;;;;14.10;67.46;102406.16;4951850;28;20035;-59
2023/05/29 07:44:28;;;;;;;10.43;2.22;;;;;;;14.22;69.29;102414.47;4967651;28;20402;-59
2023/05/29 07:46:53;;;;;;;9.10;2.30;;;;;;;14.22;66.97;102410.91;4952760;28;20027;-59
2023/05/29 07:49:21;;;;;;;9.38;2.25;;;;;;;14.39;70.03;102412.38;4950403;28;20078;-60
2023/05/29 07:51:47;;;;;;;7.80;2.13;;;;;;;14.43;67.51;102418.63;4952706;28;20221;-59
2023/05/29 07:54:12;;;;;;;9.77;2.58;;;;;;;14.52;66.15;102420.66;4955016;28;20027;-59
2023/05/29 07:56:38;;;;;;;7.13;2.28;;;;;;;14.65;66.86;102414.13;4954244;28;20089;-59
2023/05/29 07:59:05;;;;;;;8.10;2.35;;;;;;;14.77;66.25;102418.03;4956924;28;20042;-59
2023/05/29 08:01:30;;;;;;;7.85;2.30;;;;;;;14.77;64.93;102419.72;4957731;28;20035;-59
2023/05/29 08:03:55;;;;;;;6.93;2.42;;;;;;;14.89;65.45;102425.38;4954673;28;20038;-59
2023/05/29 08:06:21;;;;;;;9.77;2.28;;;;;;;14.94;63.10;102423.78;4958852;28;20019;-60
2023/05/29 08:08:47;;;;;;;8.50;1.95;;;;;;;15.00;65.66;102428.31;4957416;28;20110;-59
2023/05/29 08:11:12;;;;;;;8.50;2.17;;;;;;;15.08;62.60;102421.59;4956774;28;20042;-59
2023/05/29 08:13:38;;;;;;;9.02;2.60;;;;;;;15.02;61.78;102433.63;4957220;28;20079;-59
2023/05/29 08:16:03;;;;;;;8.07;2.38;;;;;;;15.17;64.62;102430.59;4957868;28;20105;-60
2023/05/29 08:18:31;;;;;;;11.77;2.45;;;;;;;15.42;63.53;102427.81;4958098;28;20046;-59
2023/05/29 08:20:56;;;;;;;8.50;2.50;;;;;;;15.61;63.14;102426.66;4958705;28;20114;-59
2023/05/29 08:23:21;;;;;;;9.45;2.45;;;;;;;15.56;57.80;102419.47;4958363;28;20110;-60
2023/05/29 08:25:47;;;;;;;9.02;2.33;;;;;;;15.61;61.45;102421.38;4957827;28;20107;-60
2023/05/29 08:28:13;;;;;;;8.95;2.40;;;;;;;15.73;63.37;102423.47;4958493;28;20030;-59
2023/05/29 08:30:38;;;;;;;7.85;2.40;;;;;;;15.82;61.40;102426.38;4956741;28;20026;-64
2023/05/29 08:33:03;;;;;;;7.45;2.20;;;;;;;15.96;63.00;102431.09;4957066;28;20030;-64
2023/05/29 08:35:29;;;;;;;7.22;2.28;;;;;;;16.20;62.27;102435.25;4952373;28;20043;-65
2023/05/29 08:37:54;;;;;;;8.73;2.45;;;;;;;16.30;60.90;102429.38;4955047;28;20074;-64
2023/05/29 08:40:20;;;;;;;7.68;1.92;;;;;;;16.31;59.79;102431.16;4956800;28;20585;-64
2023/05/29 08:42:50;;;;;;;8.95;2.20;;;;;;;16.37;61.19;102431.31;4955464;28;20219;-62
2023/05/29 08:45:21;;;;;;;12.38;2.35;;;;;;;16.47;61.85;102441.19;4956773;28;20550;-65
2023/05/29 08:47:51;;;;;;;8.07;2.33;;;;;;;16.52;58.88;102431.69;4956468;28;20095;-64
2023/05/29 08:50:17;;;;;;;9.10;2.45;;;;;;;16.43;57.44;102439.34;4956083;28;20026;-65
2023/05/29 08:52:43;;;;;;;6.68;2.00;;;;;;;16.40;60.22;102441.91;4956550;28;20035;-65
2023/05/29 08:55:09;;;;;;;8.93;2.50;;;;;;;16.58;59.08;102432.69;4955484;28;20390;-64
2023/05/29 08:57:37;;;;;;;8.63;2.55;;;;;;;16.59;60.11;102439.72;4954679;28;20039;-64
2023/05/29 09:00:09;;;;;;;7.70;2.10;;;;;;;16.67;59.31;102435.56;4957953;28;20059;-65
2023/05/29 09:02:35;;;;;;;9.02;2.40;;;;;;;16.69;58.75;102437.34;4955801;28;20544;-65
2023/05/29 09:05:01;;;;;;;8.73;2.28;;;;;;;16.72;58.87;102444.44;4955166;28;20027;-65
2023/05/29 09:07:27;;;;;;;9.98;2.60;;;;;;;16.72;59.12;102448.81;4977515;23;20048;-96
2023/05/29 09:09:52;;;;;;;9.10;2.47;;;;;;;16.93;61.42;102445.81;4972405;28;20062;-96
2023/05/29 09:12:18;;;;;;;6.18;2.05;;;;;;;17.16;60.04;102447.25;4990375;28;20023;-94
2023/05/29 09:14:45;;;;;;;6.15;2.10;;;;;;;17.27;59.10;102446.59;4993153;28;20038;-96
2023/05/29 09:17:12;;;;;;;8.65;2.60;;;;;;;17.34;57.87;102436.19;4994997;28;20508;-96
2023/05/29 09:19:40;;;;;;;7.95;2.13;;;;;;;17.42;56.24;102438.97;4980334;28;20030;-96
2023/05/29 09:22:13;;;;;;;6.63;2.05;;;;;;;17.58;57.40;102447.22;4981521;28;20015;-96
2023/05/29 09:24:39;;;;;;;6.68;2.40;;;;;;;17.75;58.37;102443.16;4990238;28;20035;-96
2023/05/29 09:27:08;;;;;;;8.15;2.08;;;;;;;17.88;55.36;102441.66;4993038;28;20584;-96
2023/05/29 09:29:38;;;;;;;7.70;2.40;;;;;;;17.90;57.01;102440.88;4980238;28;20026;-96
2023/05/29 09:32:08;;;;;;;7.45;2.20;;;;;;;17.88;53.79;102439.88;4978987;28;20023;-96
2023/05/29 09:34:33;;;;;;;5.75;2.20;;;;;;;18.02;55.28;102440.19;4976331;28;20038;-96
2023/05/29 09:37:30;;;;;;;8.48;2.20;;;;;;;18.24;55.45;102430.03;4977216;28;20513;-96
2023/05/29 09:39:55;;;;;;;6.57;2.00;;;;;;;18.22;53.45;102431.75;5110632;23;20066;-60
2023/05/29 09:42:21;;;;;;;6.35;2.00;;;;;;;18.40;55.20;102431.19;5137200;23;20117;-60
2023/05/29 09:44:53;;;;;;;7.53;2.53;;;;;;;18.34;54.17;102428.44;4956784;28;20102;-60
2023/05/29 09:47:19;;;;;;;5.65;2.00;;;;;;;18.51;54.08;102433.97;4956431;28;20054;-60
2023/05/29 09:49:48;;;;;;;7.03;2.25;;;;;;;18.65;54.71;102436.84;4955553;28;20034;-60
2023/05/29 09:52:15;;;;;;;6.57;2.22;;;;;;;18.73;54.13;102429.94;4971902;28;20380;-60
2023/05/29 09:54:45;;;;;;;8.23;2.33;;;;;;;18.74;53.40;102421.13;4957224;28;20569;-60
2023/05/29 09:57:12;;;;;;;6.18;2.17;;;;;;;18.51;52.69;102423.41;4957244;28;20027;-60
2023/05/29 09:59:38;;;;;;;7.25;2.30;;;;;;;18.67;55.61;102435.09;4956350;28;21333;-60
2023/05/29 10:02:06;;;;;;;4.90;2.00;;;;;;;18.88;55.34;102440.75;4956363;28;20068;-60
2023/05/29 10:04:33;;;;;;;7.97;2.50;;;;;;;19.00;53.35;102436.50;4957000;28;20031;-60
2023/05/29 10:07:05;;;;;;;6.70;2.20;;;;;;;19.14;52.72;102428.78;4957350;28;20234;-60
2023/05/29 10:09:33;;;;;;;6.95;2.40;;;;;;;19.36;53.89;102432.59;4955620;28;20031;-60
2023/05/29 10:12:02;;;;;;;6.57;2.10;;;;;;;19.50;54.27;102431.00;4956325;28;20097;-60
2023/05/29 10:14:31;;;;;;;6.55;2.47;;;;;;;19.43;51.81;102434.44;4956478;28;20026;-60
2023/05/29 10:17:01;;;;;;;6.95;2.15;;;;;;;19.29;48.73;102435.16;4957160;28;20501;-60
2023/05/29 10:19:29;;;;;;;8.77;2.60;;;;;;;19.60;54.25;102430.25;4954621;28;20098;-60
2023/05/29 10:21:56;;;;;;;8.70;2.65;;;;;;;19.71;51.91;102419.81;4956302;28;20027;-60
2023/05/29 10:24:21;;;;;;;6.43;2.20;;;;;;;19.79;51.37;102425.19;4956552;28;20387;-60
2023/05/29 10:26:49;;;;;;;8.18;2.33;;;;;;;19.96;51.32;102422.72;4956705;28;20033;-61
2023/05/29 10:29:22;;;;;;;7.22;2.40;;;;;;;19.91;52.69;102425.31;4954872;28;20411;-59
2023/05/29 10:32:09;;;;;;;5.93;2.42;;;;;;;20.03;50.47;102421.00;4955655;28;20023;-59
2023/05/29 10:34:56;;;;;;;8.35;2.55;;;;;;;19.96;52.91;102423.59;4956355;28;20038;-60
2023/05/29 10:40:07;;;;;;;6.43;2.13;;;;;;;19.96;49.17;102415.66;4995560;23;20126;-61
2023/05/29 10:43:10;;;;;;;5.70;2.40;;;;;;;20.22;50.80;102420.31;5128828;23;20067;-96
2023/05/29 10:45:52;;;;;;;8.52;2.33;;;;;;;20.24;47.17;102418.56;4974210;28;20031;-96
2023/05/29 10:48:31;;;;;;;6.15;2.35;;;;;;;20.21;49.50;102407.06;4988501;28;20045;-96
2023/05/29 10:51:00;;;;;;;4.50;1.88;;;;;;;20.08;47.87;102414.03;4975740;28;20054;-96
2023/05/29 10:53:39;;;;;;;7.13;2.13;;;;;;;20.12;50.45;102418.47;4975953;28;20504;-96
2023/05/29 10:56:12;;;;;;;4.57;1.90;;;;;;;20.08;51.54;102417.53;4994848;28;20023;-96
2023/05/29 10:58:54;;;;;;;6.75;2.08;;;;;;;20.25;50.09;102415.06;4976690;28;20038;-96
2023/05/29 11:01:27;;;;;;;7.15;2.10;;;;;;;20.33;50.08;102407.16;4976749;28;20117;-96
2023/05/29 11:04:17;;;;;;;6.20;2.20;;;;;;;20.40;49.79;102410.75;4971071;28;20026;-95
2023/05/29 11:06:44;;;;;;;7.57;2.30;;;;;;;20.44;49.83;102415.22;5003835;28;20122;-96
2023/05/29 11:09:40;;;;;;;6.80;2.22;;;;;;;20.54;49.95;102406.44;4975282;28;20039;-96
2023/05/29 11:12:25;;;;;;;6.82;2.33;;;;;;;20.60;49.10;102406.50;4989699;28;20037;-96
2023/05/29 11:14:58;;;;;;;7.32;2.03;;;;;;;20.82;50.85;102406.66;4976178;28;20105;-96
2023/05/29 11:17:53;;;;;;;8.75;2.17;;;;;;;21.12;48.59;102397.13;4976229;28;20027;-96
2023/05/29 11:20:43;;;;;;;5.82;2.10;;;;;;;21.12;46.97;102397.13;4974774;28;20033;-96
2023/05/29 11:23:25;;;;;;;7.40;2.30;;;;;;;21.24;47.93;102394.50;4973076;28;20559;-96
2023/05/29 11:26:25;;;;;;;7.78;2.20;;;;;;;21.21;48.53;102396.25;4972347;28;20169;-96